Time;durP1;ratioP1;P1;durP2;ratioP2;P2;SDS_P1;SDS_P2;PMS_P1;PMS_P2;Temp;Humidity;BMP_temperature;BMP_pressure;BME280_temperature;BME280_humidity;BME280_pressure;Samples;Min_cycle;Max_cycle;Signal;HPM_P1;HPM_P2
2023/04/09 00:01:33;;;;;;;8.97;5.73;;;;;;;8.24;77.50;101350.59;5000879;28;20271;-74
2023/04/09 00:03:59;;;;;;;8.53;5.20;;;;;;;8.32;76.67;101354.44;5003624;28;20246;-72
2023/04/09 00:06:26;;;;;;;8.03;5.27;;;;;;;8.26;76.88;101355.94;5008681;28;20270;-72
2023/04/09 00:08:52;;;;;;;8.70;5.13;;;;;;;8.24;76.66;101353.25;5007571;28;20247;-73
2023/04/09 00:11:19;;;;;;;8.33;5.40;;;;;;;8.27;76.74;101348.06;5003215;28;20254;-73
2023/04/09 00:13:45;;;;;;;7.03;4.83;;;;;;;8.31;76.63;101346.44;5006135;28;20250;-72
2023/04/09 00:16:12;;;;;;;7.77;5.00;;;;;;;8.24;76.98;101349.69;5001524;28;20267;-73
2023/04/09 00:18:38;;;;;;;7.73;5.07;;;;;;;8.21;76.75;101342.56;5004602;28;20729;-72
2023/04/09 00:21:05;;;;;;;10.60;5.07;;;;;;;8.26;76.74;101343.63;5003259;28;20703;-73
2023/04/09 00:23:33;;;;;;;8.93;5.23;;;;;;;8.28;76.45;101341.97;5005028;28;20234;-72
2023/04/09 00:25:59;;;;;;;7.67;5.17;;;;;;;8.26;75.80;101348.91;5007476;28;20339;-74
2023/04/09 00:28:26;;;;;;;6.20;4.43;;;;;;;8.27;76.49;101342.81;4991796;28;20519;-72
2023/04/09 00:30:52;;;;;;;7.17;4.90;;;;;;;8.29;76.53;101338.47;5008237;28;20212;-73
2023/04/09 00:33:19;;;;;;;7.83;5.13;;;;;;;8.29;76.02;101340.22;5005186;28;20228;-72
2023/04/09 00:35:45;;;;;;;6.97;4.70;;;;;;;8.30;75.66;101342.91;5000544;28;20434;-72
2023/04/09 00:38:11;;;;;;;7.10;5.00;;;;;;;8.36;75.63;101335.25;4997665;28;20567;-73
2023/04/09 00:40:38;;;;;;;6.77;4.57;;;;;;;8.38;75.28;101340.59;5007067;28;20314;-72
2023/04/09 00:43:04;;;;;;;6.83;4.80;;;;;;;8.32;75.71;101338.59;5002697;28;20243;-72
2023/04/09 00:45:30;;;;;;;6.87;4.77;;;;;;;8.29;76.15;101340.22;4999762;28;20220;-72
2023/04/09 00:47:57;;;;;;;7.57;4.57;;;;;;;8.23;76.29;101335.63;5005209;28;20192;-72
2023/04/09 00:50:23;;;;;;;6.07;4.50;;;;;;;8.18;76.52;101332.81;4998433;28;20247;-73
2023/04/09 00:52:50;;;;;;;6.97;4.70;;;;;;;8.18;76.24;101330.16;4995605;28;20299;-73
2023/04/09 00:55:17;;;;;;;6.67;4.87;;;;;;;8.20;76.27;101340.78;5001548;28;20563;-72
2023/04/09 00:57:44;;;;;;;6.07;4.30;;;;;;;8.24;76.14;101334.78;5003043;28;20215;-73
2023/04/09 01:00:11;;;;;;;7.60;4.93;;;;;;;8.23;75.85;101338.25;5000671;28;20261;-73
2023/04/09 01:02:39;;;;;;;6.27;4.23;;;;;;;8.23;76.49;101340.00;4994568;28;20386;-72
2023/04/09 01:05:06;;;;;;;7.03;4.87;;;;;;;8.24;76.16;101333.88;5008146;28;20253;-72
2023/04/09 01:08:07;;;;;;;7.23;4.73;;;;;;;8.28;75.87;101338.41;5006931;28;20196;-74
2023/04/09 01:11:05;;;;;;;7.50;4.77;;;;;;;8.22;76.02;101335.56;5004716;28;20218;-72
2023/04/09 01:13:46;;;;;;;6.80;4.77;;;;;;;8.12;76.47;101339.59;4987766;28;20215;-72
2023/04/09 01:16:15;;;;;;;6.87;4.70;;;;;;;8.14;76.40;101333.53;5006844;28;20204;-72
2023/04/09 01:18:51;;;;;;;7.23;4.67;;;;;;;8.13;76.64;101334.38;5003380;28;20284;-73
2023/04/09 01:21:23;;;;;;;7.60;4.87;;;;;;;8.16;76.74;101334.47;5004194;28;20222;-72
2023/04/09 01:24:20;;;;;;;6.33;4.57;;;;;;;8.14;76.64;101328.25;5004904;28;20197;-72
2023/04/09 01:27:04;;;;;;;6.93;4.90;;;;;;;8.14;77.15;101328.25;5001630;28;20232;-72
2023/04/09 01:29:33;;;;;;;9.87;5.37;;;;;;;8.06;77.43;101326.16;5004894;28;20207;-72
2023/04/09 01:32:01;;;;;;;7.87;5.10;;;;;;;7.97;77.90;101326.69;5000105;28;20201;-72
2023/04/09 01:34:29;;;;;;;7.73;4.70;;;;;;;7.94;78.13;101336.22;5003808;28;20204;-73
2023/04/09 01:36:58;;;;;;;8.53;5.07;;;;;;;7.90;78.46;101329.03;5002972;28;20208;-72
2023/04/09 01:39:26;;;;;;;7.60;5.10;;;;;;;7.88;78.73;101334.25;5006930;28;20226;-72
2023/04/09 01:41:55;;;;;;;7.73;5.00;;;;;;;7.81;79.47;101327.84;5002459;28;20215;-72
2023/04/09 01:44:23;;;;;;;8.07;5.23;;;;;;;7.65;79.35;101328.09;5008857;28;20851;-72
2023/04/09 01:46:50;;;;;;;8.33;5.33;;;;;;;7.49;80.18;101321.28;5007865;28;20887;-73
2023/04/09 01:49:17;;;;;;;8.43;5.77;;;;;;;7.30;81.44;101331.00;5006409;28;20207;-72
2023/04/09 01:51:44;;;;;;;7.43;5.20;;;;;;;7.19;81.84;101331.44;5005300;28;20659;-72
2023/04/09 01:54:10;;;;;;;8.37;5.23;;;;;;;7.10;82.58;101332.78;5007799;28;20204;-72
2023/04/09 01:56:45;;;;;;;8.10;5.33;;;;;;;6.81;83.50;101335.09;5002438;28;20570;-73
2023/04/09 01:59:13;;;;;;;8.50;5.50;;;;;;;6.79;84.30;101338.47;5006088;28;20231;-73
2023/04/09 02:02:02;;;;;;;10.27;5.77;;;;;;;6.66;85.12;101339.66;5006681;28;20559;-74
2023/04/09 02:04:42;;;;;;;10.30;6.03;;;;;;;6.59;85.18;101338.50;5008190;28;20238;-73
2023/04/09 02:07:24;;;;;;;9.63;5.97;;;;;;;6.52;85.73;101339.06;5005937;28;20584;-72
2023/04/09 02:09:53;;;;;;;7.97;5.40;;;;;;;6.42;86.44;101342.13;5000832;28;20203;-74
2023/04/09 02:12:20;;;;;;;9.27;5.57;;;;;;;6.24;87.63;101338.63;5010626;28;20205;-72
2023/04/09 02:14:50;;;;;;;10.33;6.27;;;;;;;6.24;88.06;101347.41;5012017;28;20620;-73
2023/04/09 02:17:18;;;;;;;9.77;6.00;;;;;;;6.23;88.55;101347.34;4993444;28;20850;-73
2023/04/09 02:19:46;;;;;;;9.67;6.00;;;;;;;6.08;88.89;101342.28;5007193;28;20340;-72
2023/04/09 02:22:14;;;;;;;9.83;6.00;;;;;;;5.96;89.28;101347.84;5005958;28;20632;-73
2023/04/09 02:24:40;;;;;;;10.20;5.87;;;;;;;6.02;89.13;101349.00;5003655;28;20305;-72
2023/04/09 02:27:07;;;;;;;8.77;5.50;;;;;;;5.94;89.71;101349.50;5004052;28;20200;-74
2023/04/09 02:29:33;;;;;;;9.30;5.90;;;;;;;5.86;90.10;101344.69;5008406;28;20332;-73
2023/04/09 02:32:00;;;;;;;9.43;6.07;;;;;;;5.80;90.86;101347.03;5005241;28;20252;-72
2023/04/09 02:34:26;;;;;;;11.67;6.40;;;;;;;5.68;91.20;101349.09;5003657;28;20207;-72
2023/04/09 02:36:53;;;;;;;9.33;6.00;;;;;;;5.55;91.62;101351.09;4999583;28;20197;-72
2023/04/09 02:39:19;;;;;;;9.63;6.47;;;;;;;5.53;92.10;101350.13;5001607;28;20745;-73
2023/04/09 02:41:45;;;;;;;10.13;6.00;;;;;;;5.52;92.40;101350.03;5004630;28;20220;-72
2023/04/09 02:44:12;;;;;;;10.73;6.23;;;;;;;5.43;92.71;101346.97;5008652;28;20258;-73
2023/04/09 02:46:39;;;;;;;10.93;6.20;;;;;;;5.39;92.57;101345.94;5005384;28;20203;-73
2023/04/09 02:49:06;;;;;;;10.97;6.00;;;;;;;5.27;93.70;101340.97;5005166;28;20212;-73
2023/04/09 02:51:35;;;;;;;9.00;5.67;;;;;;;5.17;94.10;101350.91;5004332;28;20222;-73
2023/04/09 02:54:03;;;;;;;11.17;6.30;;;;;;;5.09;94.44;101350.53;5015625;28;20200;-73
2023/04/09 02:56:29;;;;;;;9.97;5.87;;;;;;;5.07;95.03;101348.66;5010110;28;20205;-73
2023/04/09 02:58:55;;;;;;;9.07;5.73;;;;;;;4.89;95.32;101348.63;5008661;28;20205;-74
2023/04/09 03:01:22;;;;;;;9.27;6.07;;;;;;;4.79;96.35;101344.63;5002259;28;20248;-74
2023/04/09 03:03:48;;;;;;;11.97;6.53;;;;;;;4.66;96.77;101350.06;5007201;28;20197;-72
2023/04/09 03:06:15;;;;;;;8.87;5.53;;;;;;;4.56;97.34;101343.44;4995686;28;20224;-72
2023/04/09 03:08:41;;;;;;;9.43;6.30;;;;;;;4.45;97.99;101341.06;5008411;28;20238;-72
2023/04/09 03:11:08;;;;;;;10.80;6.50;;;;;;;4.36;98.14;101329.25;5003485;28;20771;-74
2023/04/09 03:13:34;;;;;;;11.67;6.70;;;;;;;4.34;98.76;101337.84;5007903;28;20657;-73
2023/04/09 03:16:00;;;;;;;10.00;6.03;;;;;;;4.21;99.00;101333.69;5003102;28;20200;-72
2023/04/09 03:18:27;;;;;;;10.33;6.33;;;;;;;4.21;99.68;101335.41;5001603;28;20200;-72
2023/04/09 03:20:53;;;;;;;8.37;5.77;;;;;;;4.16;100.00;101329.91;5009665;28;20243;-72
2023/04/09 03:23:19;;;;;;;10.37;6.20;;;;;;;4.08;100.00;101326.88;4991382;28;20275;-72
2023/04/09 03:25:46;;;;;;;10.90;6.13;;;;;;;4.03;100.00;101330.06;5007032;28;20274;-72
2023/04/09 03:28:12;;;;;;;11.70;6.73;;;;;;;4.10;100.00;101313.88;5005144;28;20193;-72
2023/04/09 03:30:38;;;;;;;10.33;5.77;;;;;;;4.17;100.00;101325.56;5005575;28;20233;-73
2023/04/09 03:33:05;;;;;;;9.17;5.83;;;;;;;4.09;100.00;101322.53;5001231;28;20214;-73
2023/04/09 03:35:31;;;;;;;10.03;6.23;;;;;;;4.13;100.00;101319.25;5007546;28;20257;-73
2023/04/09 03:37:58;;;;;;;9.20;5.97;;;;;;;3.97;100.00;101316.63;5009043;28;20200;-72
2023/04/09 03:40:24;;;;;;;10.53;6.27;;;;;;;3.94;100.00;101313.81;5002884;28;20239;-72
2023/04/09 03:42:50;;;;;;;9.77;6.30;;;;;;;3.85;100.00;101324.72;5006195;28;20223;-72
2023/04/09 03:45:17;;;;;;;10.27;6.53;;;;;;;3.75;100.00;101319.78;5005585;28;20282;-72
2023/04/09 03:47:43;;;;;;;10.93;6.53;;;;;;;3.68;100.00;101312.41;5007865;28;20676;-72
2023/04/09 03:50:09;;;;;;;12.47;6.60;;;;;;;3.62;100.00;101325.16;5005767;28;20219;-73
2023/04/09 03:52:36;;;;;;;10.93;6.70;;;;;;;3.64;100.00;101324.44;5005437;28;20256;-72
2023/04/09 03:55:03;;;;;;;11.47;6.67;;;;;;;3.60;100.00;101316.28;5002181;28;20201;-74
2023/04/09 03:57:29;;;;;;;11.00;6.87;;;;;;;3.59;100.00;101314.50;5003029;28;20200;-72
2023/04/09 03:59:56;;;;;;;12.20;7.33;;;;;;;3.60;100.00;101309.38;5008386;28;20278;-73
2023/04/09 04:02:25;;;;;;;12.00;6.60;;;;;;;3.57;100.00;101314.41;5007225;28;20679;-72
2023/04/09 04:04:52;;;;;;;10.43;5.93;;;;;;;3.49;100.00;101313.09;5007915;28;20223;-73
2023/04/09 04:07:18;;;;;;;10.13;6.57;;;;;;;3.41;100.00;101312.66;5005699;28;20287;-72
2023/04/09 04:09:44;;;;;;;10.03;6.67;;;;;;;3.33;100.00;101321.78;5003942;28;20220;-72
2023/04/09 04:12:11;;;;;;;14.50;6.93;;;;;;;3.25;100.00;101317.84;5007915;28;20214;-72
2023/04/09 04:14:37;;;;;;;11.07;6.23;;;;;;;3.17;100.00;101311.25;5008415;28;20255;-72
2023/04/09 04:17:03;;;;;;;12.17;6.37;;;;;;;3.07;100.00;101319.38;5004731;28;20605;-73
2023/04/09 04:19:30;;;;;;;10.10;5.90;;;;;;;3.02;100.00;101320.84;4999070;28;20314;-73
2023/04/09 04:21:56;;;;;;;9.73;5.90;;;;;;;2.94;100.00;101320.38;5004624;28;20550;-73
2023/04/09 04:24:22;;;;;;;10.33;5.57;;;;;;;2.93;100.00;101322.91;5004223;28;20205;-73
2023/04/09 04:26:49;;;;;;;10.73;6.30;;;;;;;2.83;100.00;101330.22;5008581;28;20215;-70
2023/04/09 04:29:15;;;;;;;10.40;6.60;;;;;;;2.71;100.00;101324.25;5005630;28;20250;-70
2023/04/09 04:31:41;;;;;;;10.13;6.37;;;;;;;2.63;100.00;101328.13;5008485;28;20226;-70
2023/04/09 04:34:08;;;;;;;10.57;6.13;;;;;;;2.54;100.00;101338.03;5003613;28;20741;-70
2023/04/09 04:36:36;;;;;;;10.67;6.47;;;;;;;2.49;100.00;101335.16;5003717;28;20196;-70
2023/04/09 04:39:03;;;;;;;15.00;6.80;;;;;;;2.54;100.00;101334.53;5005915;28;20571;-70
2023/04/09 04:41:29;;;;;;;12.93;6.20;;;;;;;2.58;100.00;101339.13;5008385;28;20727;-70
2023/04/09 04:43:56;;;;;;;10.53;6.47;;;;;;;2.53;100.00;101341.47;5005299;28;20197;-70
2023/04/09 04:46:22;;;;;;;11.93;6.83;;;;;;;2.57;100.00;101340.84;5006439;28;20241;-70
2023/04/09 04:48:49;;;;;;;12.17;6.80;;;;;;;2.57;100.00;101339.94;5000966;28;20283;-70
2023/04/09 04:51:15;;;;;;;11.47;7.03;;;;;;;2.58;100.00;101345.25;5000296;28;20222;-70
2023/04/09 04:53:42;;;;;;;11.87;7.20;;;;;;;2.58;100.00;101344.34;5004711;28;20193;-70
2023/04/09 04:56:13;;;;;;;11.83;6.37;;;;;;;2.57;100.00;101340.84;5004832;28;20192;-70
2023/04/09 04:58:40;;;;;;;11.23;6.70;;;;;;;2.56;100.00;101336.41;5005535;28;20300;-70
2023/04/09 05:01:06;;;;;;;11.23;6.17;;;;;;;2.57;100.00;101339.94;5007864;28;20221;-70
2023/04/09 05:03:33;;;;;;;12.63;6.87;;;;;;;2.59;100.00;101339.22;5008254;28;20196;-70
2023/04/09 05:05:59;;;;;;;12.20;7.23;;;;;;;2.61;100.00;101337.59;5005934;28;20273;-70
2023/04/09 05:08:25;;;;;;;11.97;6.73;;;;;;;2.62;100.00;101343.72;5007273;28;20707;-70
2023/04/09 05:10:54;;;;;;;13.30;7.43;;;;;;;2.65;100.00;101333.44;5008630;28;20667;-70
2023/04/09 05:13:22;;;;;;;15.07;7.17;;;;;;;2.72;100.00;101338.22;5003290;28;20224;-70
2023/04/09 05:15:48;;;;;;;12.87;7.20;;;;;;;2.81;100.00;101338.81;5012470;28;20221;-70
2023/04/09 05:18:15;;;;;;;14.30;8.00;;;;;;;2.98;100.00;101345.03;5008074;28;20574;-70
2023/04/09 05:20:41;;;;;;;13.77;7.90;;;;;;;3.10;100.00;101344.00;5004957;28;20218;-70
2023/04/09 05:23:11;;;;;;;14.03;8.53;;;;;;;3.30;100.00;101346.91;5003783;28;20203;-69
2023/04/09 05:25:38;;;;;;;18.43;8.67;;;;;;;3.30;100.00;101336.44;5009275;28;20604;-70
2023/04/09 05:28:04;;;;;;;13.20;7.70;;;;;;;3.32;100.00;101333.09;5005476;28;20198;-70
2023/04/09 05:30:30;;;;;;;15.43;8.30;;;;;;;3.40;100.00;101344.00;5007810;28;20230;-70
2023/04/09 05:32:57;;;;;;;13.53;8.03;;;;;;;3.44;100.00;101344.25;5008021;28;20203;-70
2023/04/09 05:35:23;;;;;;;17.23;8.90;;;;;;;3.55;100.00;101346.56;5002967;28;20203;-70
2023/04/09 05:37:50;;;;;;;16.63;8.60;;;;;;;3.64;100.00;101344.50;5007518;28;20228;-70
2023/04/09 05:40:16;;;;;;;14.00;8.07;;;;;;;3.80;100.00;101338.38;5003668;28;20263;-70
2023/04/09 05:42:42;;;;;;;14.83;8.00;;;;;;;4.09;100.00;101338.28;5007784;28;20199;-70
2023/04/09 05:45:09;;;;;;;15.10;8.63;;;;;;;4.23;100.00;101337.28;5006578;28;20754;-69
2023/04/09 05:47:35;;;;;;;14.63;8.50;;;;;;;4.43;100.00;101345.34;5008422;28;20319;-70
2023/04/09 05:50:03;;;;;;;14.37;8.50;;;;;;;4.51;100.00;101346.63;5008215;28;20711;-70
2023/04/09 05:52:29;;;;;;;14.60;8.67;;;;;;;4.65;100.00;101350.88;5007536;28;20649;-70
2023/04/09 05:54:55;;;;;;;12.87;7.57;;;;;;;4.97;100.00;101353.44;5003970;28;20295;-70
2023/04/09 05:57:22;;;;;;;16.77;9.00;;;;;;;5.22;100.00;101352.97;5003836;28;20342;-70
2023/04/09 05:59:48;;;;;;;12.57;8.03;;;;;;;5.49;99.51;101356.06;5004751;28;20687;-70
2023/04/09 06:02:15;;;;;;;14.57;8.43;;;;;;;5.64;98.81;101345.41;5005770;28;20208;-70
2023/04/09 06:04:41;;;;;;;14.80;7.97;;;;;;;5.94;98.66;101348.63;5005095;28;20664;-70
2023/04/09 06:07:07;;;;;;;14.67;7.87;;;;;;;6.12;97.25;101353.84;5006799;28;20224;-70
2023/04/09 06:09:34;;;;;;;14.37;8.53;;;;;;;6.34;95.96;101347.84;5007663;28;20291;-70
2023/04/09 06:12:01;;;;;;;15.47;8.80;;;;;;;6.56;94.85;101338.38;5002889;28;20231;-69
2023/04/09 06:14:27;;;;;;;16.50;8.83;;;;;;;6.73;94.01;101343.47;5004014;28;20244;-69
2023/04/09 06:16:54;;;;;;;12.90;8.23;;;;;;;6.93;93.36;101349.63;5010108;28;20221;-70
2023/04/09 06:19:22;;;;;;;15.00;8.73;;;;;;;6.97;92.74;101346.28;5006599;28;20266;-70
2023/04/09 06:21:48;;;;;;;14.73;8.67;;;;;;;6.91;92.65;101354.81;5008815;28;20585;-70
2023/04/09 06:24:14;;;;;;;15.90;8.93;;;;;;;7.15;91.00;101352.31;5003693;28;21804;-70
2023/04/09 06:26:41;;;;;;;15.87;9.40;;;;;;;7.41;88.20;101354.31;5007308;28;20217;-70
2023/04/09 06:29:07;;;;;;;15.57;8.80;;;;;;;7.73;87.15;101349.47;5006902;28;20547;-70
2023/04/09 06:31:33;;;;;;;15.67;9.67;;;;;;;7.94;85.31;101350.31;5009261;28;20251;-70
2023/04/09 06:34:00;;;;;;;15.90;8.87;;;;;;;8.08;83.72;101351.78;4992817;28;20200;-70
2023/04/09 06:36:27;;;;;;;17.67;8.73;;;;;;;8.32;82.90;101353.53;5006666;28;20200;-70
2023/04/09 06:38:53;;;;;;;15.53;8.60;;;;;;;8.45;82.46;101356.75;5009973;28;20200;-70
2023/04/09 06:41:20;;;;;;;18.87;9.90;;;;;;;8.86;81.08;101362.63;5008310;28;20277;-70
2023/04/09 06:43:49;;;;;;;17.27;10.53;;;;;;;8.88;80.41;101363.59;5010188;28;20203;-70
2023/04/09 06:46:18;;;;;;;17.17;9.83;;;;;;;9.04;79.60;101368.56;5008943;28;20222;-70
2023/04/09 06:48:45;;;;;;;23.70;11.00;;;;;;;9.11;78.88;101361.75;5009200;28;20200;-70
2023/04/09 06:51:12;;;;;;;18.60;10.60;;;;;;;9.21;78.87;101369.16;5009844;28;20219;-70
2023/04/09 06:53:38;;;;;;;18.33;10.37;;;;;;;9.33;77.88;101366.94;5009426;28;20251;-69
2023/04/09 06:56:06;;;;;;;20.00;11.33;;;;;;;9.32;77.85;101364.25;5005136;28;20204;-70
2023/04/09 06:58:32;;;;;;;19.07;10.80;;;;;;;9.21;78.54;101368.28;5006166;28;20198;-70
2023/04/09 07:00:59;;;;;;;18.07;11.00;;;;;;;9.03;79.26;101364.13;5008676;28;20729;-70
2023/04/09 07:03:26;;;;;;;20.00;11.90;;;;;;;9.42;78.11;101361.03;5005500;28;20306;-70
2023/04/09 07:05:53;;;;;;;21.13;12.03;;;;;;;10.28;74.28;101364.72;5008271;28;20242;-70
2023/04/09 07:08:21;;;;;;;19.63;11.20;;;;;;;11.63;69.77;101354.31;5005997;28;20200;-70
2023/04/09 07:10:48;;;;;;;18.60;10.93;;;;;;;12.33;66.96;101355.94;5010724;28;20306;-70
2023/04/09 07:13:15;;;;;;;20.43;11.20;;;;;;;13.50;63.41;101349.41;5008420;28;20199;-70
2023/04/09 07:15:41;;;;;;;19.27;11.33;;;;;;;14.52;58.98;101356.28;5007416;28;20684;-70
2023/04/09 07:18:08;;;;;;;19.00;11.00;;;;;;;15.21;55.92;101352.66;5005327;28;20283;-70
2023/04/09 07:20:34;;;;;;;17.60;11.13;;;;;;;15.60;53.87;101351.22;5005715;28;20216;-70
2023/04/09 07:23:01;;;;;;;21.80;11.07;;;;;;;15.04;52.69;101354.22;5003173;28;20694;-70
2023/04/09 07:25:27;;;;;;;17.93;11.23;;;;;;;14.33;54.13;101355.09;4995376;28;20218;-70
2023/04/09 07:27:54;;;;;;;18.03;11.27;;;;;;;14.51;54.61;101357.16;5008429;28;20678;-70
2023/04/09 07:30:20;;;;;;;16.77;10.80;;;;;;;14.50;53.84;101362.47;5006825;28;20261;-70
2023/04/09 07:32:47;;;;;;;18.23;11.10;;;;;;;14.41;53.82;101352.56;5004024;28;20693;-70
2023/04/09 07:35:13;;;;;;;20.37;11.63;;;;;;;13.88;55.13;101351.78;5006347;28;20887;-70
2023/04/09 07:37:40;;;;;;;19.27;11.77;;;;;;;13.66;55.81;101363.88;5009821;28;20193;-70
2023/04/09 07:40:07;;;;;;;19.43;11.87;;;;;;;13.30;57.57;101373.00;5007726;28;20221;-70
2023/04/09 07:42:36;;;;;;;20.37;12.33;;;;;;;12.58;59.86;101373.31;5006128;28;20207;-70
2023/04/09 07:45:03;;;;;;;21.13;12.00;;;;;;;12.49;60.74;101370.47;5008723;28;20235;-70
2023/04/09 07:47:30;;;;;;;21.03;13.00;;;;;;;12.26;61.38;101364.66;5013964;28;20787;-70
2023/04/09 07:49:57;;;;;;;19.83;12.03;;;;;;;12.26;61.35;101369.06;5007288;28;20223;-70
2023/04/09 07:52:23;;;;;;;20.17;12.40;;;;;;;12.01;63.37;101365.88;5005882;28;20207;-69
2023/04/09 07:54:50;;;;;;;22.17;13.43;;;;;;;11.96;63.29;101369.25;5008258;28;20197;-70
2023/04/09 07:57:16;;;;;;;21.87;11.97;;;;;;;11.96;63.37;101367.50;5000214;28;20264;-70
2023/04/09 07:59:42;;;;;;;23.47;13.53;;;;;;;11.80;63.50;101371.56;5002421;28;20202;-67
2023/04/09 08:02:09;;;;;;;21.57;12.43;;;;;;;11.77;63.95;101363.50;5003796;28;20817;-68
2023/04/09 08:04:39;;;;;;;23.00;13.47;;;;;;;11.54;64.51;101369.97;5007173;28;20200;-68
2023/04/09 08:07:06;;;;;;;19.23;12.00;;;;;;;11.46;64.64;101372.44;5008386;28;20353;-68
2023/04/09 08:09:33;;;;;;;22.53;13.33;;;;;;;11.52;66.34;101374.34;5004351;28;20205;-69
2023/04/09 08:11:59;;;;;;;24.33;14.20;;;;;;;11.52;65.83;101372.59;5008080;28;20210;-68
2023/04/09 08:14:26;;;;;;;22.67;13.53;;;;;;;11.69;64.81;101366.81;5007611;28;20242;-68
2023/04/09 08:16:52;;;;;;;23.80;14.30;;;;;;;11.83;64.11;101374.28;5006157;28;20227;-69
2023/04/09 08:19:19;;;;;;;22.90;13.93;;;;;;;11.87;63.71;101373.50;5007437;28;20306;-69
2023/04/09 08:21:47;;;;;;;21.67;13.13;;;;;;;11.98;63.75;101372.84;5002165;28;20223;-69
2023/04/09 08:24:14;;;;;;;24.80;13.43;;;;;;;11.85;63.78;101372.56;5005554;28;20207;-69
2023/04/09 08:26:41;;;;;;;24.37;13.63;;;;;;;11.61;64.14;101369.31;5006624;28;20237;-68
2023/04/09 08:29:09;;;;;;;22.40;13.33;;;;;;;11.53;65.91;101371.72;5003269;28;20270;-68
2023/04/09 08:31:38;;;;;;;22.57;13.70;;;;;;;11.65;64.73;101381.78;5004038;28;20239;-69
2023/04/09 08:34:05;;;;;;;24.43;13.40;;;;;;;11.57;64.66;101386.88;5002938;28;20672;-68
2023/04/09 08:36:33;;;;;;;22.30;13.13;;;;;;;11.78;64.65;101381.25;5003465;28;20195;-70
2023/04/09 08:39:01;;;;;;;22.20;12.87;;;;;;;12.03;63.38;101390.69;5003608;28;20210;-70
2023/04/09 08:41:28;;;;;;;23.03;13.20;;;;;;;12.15;62.95;101395.41;5004630;28;20775;-71
2023/04/09 08:43:55;;;;;;;20.70;12.43;;;;;;;12.32;62.61;101393.09;5006328;28;20207;-71
2023/04/09 08:46:25;;;;;;;21.17;12.77;;;;;;;12.50;61.37;101398.84;5004854;28;20235;-71
2023/04/09 08:48:52;;;;;;;20.17;12.83;;;;;;;12.18;62.20;101398.13;5005665;28;20609;-71
2023/04/09 08:51:20;;;;;;;21.10;13.07;;;;;;;12.45;61.55;101401.41;5003558;28;20300;-70
2023/04/09 08:53:52;;;;;;;22.73;13.37;;;;;;;12.63;60.41;101394.69;5004148;28;20206;-71
2023/04/09 08:56:20;;;;;;;21.83;13.07;;;;;;;12.79;60.56;101410.06;5004346;28;20230;-71
2023/04/09 08:58:47;;;;;;;21.70;12.60;;;;;;;12.79;60.80;101392.34;5002788;28;20740;-71
2023/04/09 09:01:24;;;;;;;21.63;13.10;;;;;;;13.13;59.55;101395.69;5006943;28;20230;-71
2023/04/09 09:04:05;;;;;;;20.43;12.93;;;;;;;13.25;59.70;101398.63;5002113;28;20225;-71
2023/04/09 09:06:37;;;;;;;24.30;13.67;;;;;;;13.39;59.99;101396.22;5004632;28;20284;-71
2023/04/09 09:09:04;;;;;;;20.83;12.90;;;;;;;13.53;58.70;101397.34;5003324;28;21042;-70
2023/04/09 09:11:31;;;;;;;20.90;13.10;;;;;;;13.62;58.53;101405.50;5004295;28;20226;-71
2023/04/09 09:14:05;;;;;;;20.17;12.70;;;;;;;13.57;58.35;101399.19;5005855;28;20686;-73
2023/04/09 09:16:33;;;;;;;19.93;12.53;;;;;;;13.58;58.38;101406.31;5009253;28;20192;-73
2023/04/09 09:19:01;;;;;;;20.07;11.60;;;;;;;13.31;58.72;101406.72;5005777;28;20218;-73
2023/04/09 09:21:28;;;;;;;19.50;12.07;;;;;;;12.91;60.67;101407.69;5001739;28;20246;-72
2023/04/09 09:23:55;;;;;;;19.27;12.13;;;;;;;12.80;60.93;101404.78;5007451;28;20199;-72
2023/04/09 09:26:25;;;;;;;19.27;11.97;;;;;;;13.02;60.76;101399.91;5004358;28;20693;-73
2023/04/09 09:28:52;;;;;;;19.23;12.03;;;;;;;13.27;59.38;101396.00;5005886;28;20199;-72
2023/04/09 09:31:20;;;;;;;17.33;11.10;;;;;;;13.39;59.31;101393.56;5004228;28;20218;-73
2023/04/09 09:33:47;;;;;;;18.07;11.50;;;;;;;13.70;58.54;101392.34;5005284;28;20261;-74
2023/04/09 09:36:15;;;;;;;19.07;11.67;;;;;;;14.02;56.99;101398.19;4994979;28;20667;-78
2023/04/09 09:38:56;;;;;;;17.47;11.50;;;;;;;14.20;56.41;101394.88;5004586;28;21317;-79
2023/04/09 09:41:23;;;;;;;20.33;11.90;;;;;;;13.69;56.45;101390.53;5003720;28;20274;-80
2023/04/09 09:43:50;;;;;;;19.53;12.37;;;;;;;13.30;58.57;101394.28;5006002;28;20231;-75
2023/04/09 09:46:17;;;;;;;21.73;13.60;;;;;;;13.49;58.84;101388.41;5002983;28;20292;-78
2023/04/09 09:48:46;;;;;;;20.77;12.93;;;;;;;13.57;57.71;101392.97;4993007;28;20196;-79
2023/04/09 09:51:13;;;;;;;17.87;12.03;;;;;;;13.96;58.33;101380.31;5002322;28;20262;-79
2023/04/09 09:53:43;;;;;;;16.57;10.87;;;;;;;14.30;56.21;101373.72;5004768;28;20228;-81
2023/04/09 09:56:20;;;;;;;17.77;11.17;;;;;;;14.37;55.25;101372.03;5004418;28;20246;-80
2023/04/09 09:59:22;;;;;;;15.93;9.97;;;;;;;14.17;54.94;101381.53;5006430;28;20731;-82
2023/04/09 10:02:04;;;;;;;16.10;10.60;;;;;;;14.22;55.36;101383.38;5009818;28;20254;-81
2023/04/09 10:04:35;;;;;;;16.60;10.23;;;;;;;13.86;54.65;101372.16;5009370;28;20297;-79
2023/04/09 10:07:05;;;;;;;14.50;10.03;;;;;;;14.01;54.54;101365.31;5007985;28;20245;-77
2023/04/09 10:09:34;;;;;;;16.53;10.40;;;;;;;14.26;53.98;101363.00;5007711;28;20204;-75
2023/04/09 10:12:05;;;;;;;16.67;10.40;;;;;;;14.58;54.48;101355.47;5007378;28;20427;-71
2023/04/09 10:14:34;;;;;;;12.83;8.40;;;;;;;14.80;52.50;101362.84;5007553;28;20231;-70
2023/04/09 10:17:02;;;;;;;11.93;8.70;;;;;;;14.62;50.24;101359.97;5008948;28;20196;-71
2023/04/09 10:19:34;;;;;;;12.93;8.77;;;;;;;14.66;52.08;101362.69;5007653;28;20290;-71
2023/04/09 10:22:08;;;;;;;13.17;9.00;;;;;;;14.95;51.72;101364.81;5008698;28;20200;-74
2023/04/09 10:24:35;;;;;;;12.47;8.10;;;;;;;15.17;50.63;101347.22;5007843;28;20238;-74
2023/04/09 10:27:10;;;;;;;15.40;9.27;;;;;;;15.14;49.21;101352.53;5009237;28;20216;-75
2023/04/09 10:29:45;;;;;;;11.27;8.10;;;;;;;15.25;50.14;101349.13;5008517;28;20673;-73
2023/04/09 10:32:19;;;;;;;12.43;8.37;;;;;;;15.23;47.91;101350.88;5006015;28;20295;-74
2023/04/09 10:34:47;;;;;;;12.20;8.20;;;;;;;15.31;47.46;101340.28;5006434;28;20200;-74
2023/04/09 10:37:19;;;;;;;12.13;8.60;;;;;;;15.58;48.42;101343.19;5005173;28;20279;-74
2023/04/09 10:39:47;;;;;;;13.03;8.40;;;;;;;15.93;47.60;101337.22;5008230;28;20200;-74
2023/04/09 10:42:18;;;;;;;13.10;8.47;;;;;;;16.10;47.09;101335.56;5008034;28;20202;-74
2023/04/09 10:44:44;;;;;;;12.93;8.90;;;;;;;16.13;45.36;101340.94;5004754;28;20216;-73
2023/04/09 10:47:29;;;;;;;11.77;8.03;;;;;;;15.55;45.96;101345.81;5008390;28;20505;-73
2023/04/09 10:49:55;;;;;;;11.20;8.23;;;;;;;15.62;46.21;101339.69;5008762;28;20212;-72
2023/04/09 10:52:29;;;;;;;11.53;8.13;;;;;;;16.29;45.76;101337.44;5007962;28;20263;-74
2023/04/09 10:54:56;;;;;;;9.70;7.20;;;;;;;16.87;43.00;101345.78;5009788;28;20196;-72
2023/04/09 10:57:23;;;;;;;9.63;6.97;;;;;;;17.04;39.84;101345.78;5010020;28;20196;-74
2023/04/09 10:59:54;;;;;;;10.93;7.60;;;;;;;17.30;40.24;101332.47;5008341;28;20200;-73
2023/04/09 11:02:26;;;;;;;11.57;7.50;;;;;;;17.19;41.12;101343.13;5008217;28;20211;-74
2023/04/09 11:05:02;;;;;;;11.93;7.87;;;;;;;17.46;40.41;101331.56;5005496;28;20239;-73
2023/04/09 11:07:29;;;;;;;11.83;8.30;;;;;;;17.55;40.63;101334.25;4992915;28;20208;-73
2023/04/09 11:09:55;;;;;;;11.87;8.03;;;;;;;16.97;40.08;101338.66;5008674;28;20219;-73
2023/04/09 11:12:21;;;;;;;10.43;7.53;;;;;;;16.21;41.56;101341.88;5009218;28;20208;-73
2023/04/09 11:14:48;;;;;;;10.40;7.47;;;;;;;16.20;41.65;101345.44;5008518;28;20258;-73
2023/04/09 11:17:14;;;;;;;10.07;7.47;;;;;;;16.19;42.12;101342.75;5008777;28;20689;-73
2023/04/09 11:19:41;;;;;;;9.67;7.00;;;;;;;16.44;42.05;101342.00;5005258;28;20212;-74
2023/04/09 11:22:07;;;;;;;9.50;6.67;;;;;;;16.53;42.12;101336.69;5000195;28;20211;-72
2023/04/09 11:24:45;;;;;;;8.37;5.90;;;;;;;16.69;37.41;101331.41;5001851;28;20285;-70